createdAt,value
2019-05-26T00:00:18.082Z,1.00
2019-05-26T00:02:46.211Z,1.00
2019-05-26T00:05:14.682Z,1.27
2019-05-26T00:07:43.123Z,1.27
2019-05-26T00:10:13.566Z,1.27
2019-05-26T00:12:42.688Z,1.27
2019-05-26T00:15:11.022Z,1.27
2019-05-26T00:17:39.084Z,1.37
2019-05-26T00:20:07.530Z,1.23
2019-05-26T00:22:35.559Z,1.47
2019-05-26T00:25:03.855Z,1.27
2019-05-26T00:27:32.071Z,1.57
2019-05-26T00:30:00.314Z,1.20
2019-05-26T00:32:28.377Z,1.20
2019-05-26T00:34:56.972Z,1.10
2019-05-26T00:37:25.152Z,1.30
2019-05-26T00:39:53.182Z,1.00
2019-05-26T00:42:21.140Z,1.20
2019-05-26T00:44:49.566Z,1.03
2019-05-26T00:47:17.890Z,1.20
2019-05-26T00:49:46.285Z,1.23
2019-05-26T00:52:16.129Z,1.37
2019-05-26T00:54:44.233Z,1.40
2019-05-26T00:57:12.219Z,1.40
2019-05-26T00:59:40.304Z,1.10
2019-05-26T01:02:08.282Z,1.47
2019-05-26T01:04:36.415Z,1.53
2019-05-26T01:07:04.388Z,1.20
2019-05-26T01:09:32.661Z,1.13
2019-05-26T01:12:00.632Z,1.20
2019-05-26T01:14:28.768Z,1.27
2019-05-26T01:16:57.866Z,1.23
2019-05-26T01:19:26.126Z,1.30
2019-05-26T01:21:56.348Z,1.40
2019-05-26T01:24:24.445Z,1.30
2019-05-26T01:26:52.467Z,1.10
2019-05-26T01:29:20.928Z,1.27
2019-05-26T01:31:49.021Z,1.23
2019-05-26T01:34:17.097Z,1.40
2019-05-26T01:36:45.507Z,1.17
2019-05-26T01:39:13.580Z,1.30
2019-05-26T01:41:42.015Z,1.60
2019-05-26T01:44:09.983Z,1.50
2019-05-26T01:46:38.442Z,1.30
2019-05-26T01:49:06.441Z,1.40
2019-05-26T01:51:34.517Z,1.20
2019-05-26T01:54:03.406Z,1.13
2019-05-26T01:56:31.535Z,1.40
2019-05-26T01:58:59.921Z,1.33
2019-05-26T02:01:28.345Z,1.30
2019-05-26T02:03:56.427Z,1.20
2019-05-26T02:06:24.768Z,1.20
2019-05-26T02:08:53.089Z,1.40
2019-05-26T02:11:22.699Z,1.10
2019-05-26T02:13:50.713Z,1.10
2019-05-26T02:16:18.869Z,1.37
2019-05-26T02:18:46.990Z,1.23
2019-05-26T02:21:15.120Z,1.30
2019-05-26T02:23:43.414Z,1.03
2019-05-26T02:26:11.539Z,1.10
2019-05-26T02:28:39.859Z,1.20
2019-05-26T02:31:08.600Z,1.50
2019-05-26T02:33:36.786Z,1.10
2019-05-26T02:36:06.281Z,1.00
2019-05-26T02:38:34.425Z,0.90
2019-05-26T02:41:02.748Z,1.10
2019-05-26T02:43:31.040Z,1.10
2019-05-26T02:45:59.219Z,1.10
2019-05-26T02:48:27.270Z,1.40
2019-05-26T02:50:55.603Z,1.10
2019-05-26T02:53:24.780Z,1.20
2019-05-26T02:55:53.135Z,1.20
2019-05-26T02:58:21.143Z,1.23
2019-05-26T03:00:49.292Z,1.10
2019-05-26T03:03:17.288Z,1.23
2019-05-26T03:05:45.887Z,1.00
2019-05-26T03:08:15.170Z,1.13
2019-05-26T03:10:44.343Z,1.27
2019-05-26T03:13:16.855Z,1.23
2019-05-26T03:15:47.625Z,1.10
2019-05-26T03:18:17.191Z,1.23
2019-05-26T03:20:45.588Z,1.07
2019-05-26T03:23:15.368Z,1.17
2019-05-26T03:25:43.461Z,1.20
2019-05-26T03:28:13.051Z,1.27
2019-05-26T03:30:42.058Z,1.37
2019-05-26T03:33:10.561Z,1.00
2019-05-26T03:35:38.975Z,1.10
2019-05-26T03:38:07.042Z,1.20
2019-05-26T03:40:35.230Z,1.10
2019-05-26T03:43:04.601Z,1.20
2019-05-26T03:46:22.484Z,1.20
2019-05-26T03:48:52.355Z,1.07
2019-05-26T03:51:22.002Z,1.17
2019-05-26T03:53:50.094Z,1.10
2019-05-26T03:56:19.611Z,1.00
2019-05-26T03:58:48.930Z,1.13
2019-05-26T04:01:17.019Z,1.20
2019-05-26T04:03:46.516Z,1.30
2019-05-26T04:06:14.517Z,1.30
2019-05-26T04:08:42.583Z,1.07
2019-05-26T04:11:11.024Z,1.00
2019-05-26T04:13:39.632Z,1.00
2019-05-26T04:16:08.907Z,1.17
2019-05-26T04:18:38.814Z,1.10
2019-05-26T04:21:06.804Z,1.17
2019-05-26T04:23:35.222Z,1.20
2019-05-26T04:26:03.357Z,1.30
2019-05-26T04:28:33.155Z,1.40
2019-05-26T04:31:01.181Z,1.10
2019-05-26T04:33:29.422Z,1.20
2019-05-26T04:35:57.792Z,1.23
2019-05-26T04:38:25.904Z,1.27
2019-05-26T04:40:53.974Z,1.10
2019-05-26T04:43:23.186Z,1.47
2019-05-26T04:45:51.305Z,1.00
2019-05-26T04:48:19.454Z,1.23
2019-05-26T04:50:47.432Z,1.07
2019-05-26T04:53:15.854Z,1.20
2019-05-26T04:55:43.874Z,1.63
2019-05-26T04:58:12.040Z,1.17
2019-05-26T05:00:41.683Z,1.30
2019-05-26T05:03:09.847Z,1.20
2019-05-26T05:05:37.996Z,1.30
2019-05-26T05:08:06.097Z,1.30
2019-05-26T05:10:42.454Z,1.23
2019-05-26T05:13:06.648Z,1.30
2019-05-26T05:15:34.659Z,1.30
2019-05-26T05:18:03.061Z,1.20
2019-05-26T05:20:32.602Z,1.20
2019-05-26T05:23:00.682Z,1.47
2019-05-26T05:25:28.797Z,1.30
2019-05-26T05:27:56.852Z,1.20
2019-05-26T05:30:25.096Z,1.27
2019-05-26T05:32:53.394Z,1.20
2019-05-26T05:35:21.630Z,1.20
2019-05-26T05:37:49.847Z,1.23
2019-05-26T05:40:19.853Z,1.10
2019-05-26T05:42:47.918Z,1.00
2019-05-26T05:45:16.539Z,1.10
2019-05-26T05:47:44.814Z,1.30
2019-05-26T05:50:13.458Z,1.30
2019-05-26T05:52:41.616Z,1.27
2019-05-26T05:55:11.777Z,1.30
2019-05-26T05:57:39.831Z,1.30
2019-05-26T06:00:09.150Z,1.10
2019-05-26T06:02:37.142Z,1.20
2019-05-26T06:05:06.903Z,1.37
2019-05-26T06:07:35.010Z,1.00
2019-05-26T06:10:05.065Z,1.00
2019-05-26T06:12:34.442Z,1.00
2019-05-26T06:15:04.843Z,1.20
2019-05-26T06:17:32.877Z,1.00
2019-05-26T06:20:00.951Z,1.30
2019-05-26T06:22:28.999Z,1.10
2019-05-26T06:24:57.185Z,1.23
2019-05-26T06:27:25.355Z,1.20
2019-05-26T06:29:58.855Z,1.33
2019-05-26T06:32:23.668Z,1.20
2019-05-26T06:34:51.801Z,0.90
2019-05-26T06:37:19.816Z,1.27
2019-05-26T06:39:49.649Z,1.10
2019-05-26T06:42:17.668Z,1.07
2019-05-26T06:44:53.618Z,1.23
2019-05-26T06:47:15.799Z,1.23
2019-05-26T06:49:44.617Z,1.30
2019-05-26T06:52:12.658Z,1.20
2019-05-26T06:54:40.777Z,1.27
2019-05-26T06:57:08.817Z,1.40
2019-05-26T06:59:36.878Z,1.33
2019-05-26T07:02:04.959Z,1.20
2019-05-26T07:04:34.806Z,1.37
2019-05-26T07:07:03.506Z,1.30
2019-05-26T07:09:31.958Z,1.27
2019-05-26T07:12:00.841Z,1.40
2019-05-26T07:14:28.905Z,1.47
2019-05-26T07:16:57.118Z,1.47
2019-05-26T07:19:25.164Z,1.77
2019-05-26T07:21:54.426Z,1.63
2019-05-26T07:24:22.608Z,1.57
2019-05-26T07:26:51.772Z,1.70
2019-05-26T07:29:19.816Z,1.63
2019-05-26T07:31:48.233Z,1.70
2019-05-26T07:34:17.374Z,1.80
2019-05-26T07:36:45.509Z,2.00
2019-05-26T07:39:13.535Z,1.70
2019-05-26T07:41:41.844Z,1.63
2019-05-26T07:44:10.230Z,1.80
2019-05-26T07:46:38.417Z,1.73
2019-05-26T07:49:06.750Z,1.90
2019-05-26T07:51:34.805Z,1.67
2019-05-26T07:54:03.118Z,1.70
2019-05-26T07:56:34.706Z,1.80
2019-05-26T07:59:03.178Z,1.50
2019-05-26T08:01:36.288Z,1.60
2019-05-26T08:04:03.119Z,1.60
2019-05-26T08:06:31.210Z,1.70
2019-05-26T08:08:59.241Z,1.70
2019-05-26T08:11:27.315Z,1.87
2019-05-26T08:13:55.316Z,1.70
2019-05-26T08:16:24.645Z,1.90
2019-05-26T08:18:52.690Z,1.50
2019-05-26T08:21:21.249Z,1.67
2019-05-26T08:23:49.358Z,1.50
2019-05-26T08:26:17.611Z,1.80
2019-05-26T08:28:45.704Z,1.70
2019-05-26T08:31:13.921Z,1.60
2019-05-26T08:33:42.482Z,1.57
2019-05-26T08:36:10.526Z,1.27
2019-05-26T08:38:38.648Z,1.50
2019-05-26T08:41:06.679Z,1.50
2019-05-26T08:43:35.201Z,1.40
2019-05-26T08:46:03.244Z,1.60
2019-05-26T08:48:31.626Z,1.73
2019-05-26T08:50:59.639Z,1.40
2019-05-26T08:53:27.888Z,1.53
2019-05-26T08:55:55.895Z,1.70
2019-05-26T08:58:23.998Z,1.93
2019-05-26T09:00:52.368Z,1.47
2019-05-26T09:03:20.555Z,1.87
2019-05-26T09:05:48.563Z,1.60
2019-05-26T09:08:16.682Z,1.43
2019-05-26T09:10:44.710Z,1.60
2019-05-26T09:13:12.828Z,1.13
2019-05-26T09:15:41.908Z,1.20
2019-05-26T09:18:10.350Z,1.30
2019-05-26T09:20:38.347Z,1.20
2019-05-26T09:23:06.767Z,1.20
2019-05-26T09:25:34.800Z,1.07
2019-05-26T09:28:03.247Z,1.17
2019-05-26T09:30:31.568Z,1.00
2019-05-26T09:32:59.652Z,1.37
2019-05-26T09:35:27.648Z,1.20
2019-05-26T09:37:55.707Z,1.27
2019-05-26T09:40:23.688Z,1.00
2019-05-26T09:42:52.141Z,1.03
2019-05-26T09:45:21.979Z,1.10
2019-05-26T09:47:50.310Z,1.00
2019-05-26T09:50:18.877Z,1.10
2019-05-26T09:52:46.969Z,0.97
2019-05-26T09:55:15.500Z,1.00
2019-05-26T09:57:43.972Z,1.00
2019-05-26T10:00:16.189Z,0.97
2019-05-26T10:02:44.513Z,1.00
2019-05-26T10:05:13.940Z,0.90
2019-05-26T10:07:42.460Z,0.97
2019-05-26T10:10:11.297Z,0.80
2019-05-26T10:12:39.647Z,0.80
2019-05-26T10:15:08.781Z,0.90
2019-05-26T10:17:37.051Z,1.20
2019-05-26T10:20:06.435Z,1.10
2019-05-26T10:22:36.451Z,0.90
2019-05-26T10:25:06.971Z,1.00
2019-05-26T10:27:34.971Z,0.83
2019-05-26T10:30:04.812Z,1.00
2019-05-26T10:32:32.913Z,1.13
2019-05-26T10:35:01.046Z,1.10
2019-05-26T10:37:30.845Z,1.03
2019-05-26T10:40:00.649Z,1.10
2019-05-26T10:42:29.018Z,1.17
2019-05-26T10:44:57.603Z,1.30
2019-05-26T10:47:27.278Z,1.10
2019-05-26T10:49:55.615Z,1.10
2019-05-26T10:52:23.985Z,1.00
2019-05-26T10:54:52.105Z,1.00
2019-05-26T10:57:20.233Z,1.10
2019-05-26T10:59:48.330Z,0.90
2019-05-26T11:02:16.445Z,0.87
2019-05-26T11:04:44.582Z,1.00
2019-05-26T11:07:13.022Z,0.90
2019-05-26T11:09:41.493Z,1.30
2019-05-26T11:12:09.662Z,1.20
2019-05-26T11:14:38.036Z,1.50
2019-05-26T11:17:07.156Z,1.47
2019-05-26T11:19:35.680Z,1.40
2019-05-26T11:22:06.576Z,1.20
2019-05-26T11:24:36.232Z,1.20
2019-05-26T11:27:09.928Z,1.10
2019-05-26T11:29:34.563Z,1.03
2019-05-26T11:32:04.072Z,1.27
2019-05-26T11:34:33.281Z,1.37
2019-05-26T11:37:01.304Z,1.70
2019-05-26T11:39:29.511Z,1.63
2019-05-26T11:42:10.555Z,1.50
2019-05-26T11:44:28.683Z,1.80
2019-05-26T11:46:56.793Z,1.50
2019-05-26T11:49:25.000Z,1.57
2019-05-26T11:51:54.160Z,1.70
2019-05-26T11:54:22.225Z,1.73
2019-05-26T11:56:50.733Z,1.97
2019-05-26T11:59:20.384Z,1.57
2019-05-26T12:01:48.874Z,1.60
2019-05-26T12:04:16.990Z,1.60
2019-05-26T12:06:45.101Z,1.63
2019-05-26T12:09:13.339Z,1.40
2019-05-26T12:11:41.383Z,1.30
2019-05-26T12:14:09.401Z,1.27
2019-05-26T12:16:41.491Z,1.40
2019-05-26T12:19:09.592Z,1.73
2019-05-26T12:21:38.040Z,1.80
2019-05-26T12:24:06.035Z,1.90
2019-05-26T12:26:34.264Z,1.63
2019-05-26T12:29:02.260Z,1.60
2019-05-26T12:31:30.356Z,1.67
2019-05-26T12:33:58.351Z,1.60
2019-05-26T12:36:28.156Z,1.30
2019-05-26T12:38:56.389Z,1.50
2019-05-26T12:41:24.502Z,1.60
2019-05-26T12:43:52.496Z,1.40
2019-05-26T12:46:20.933Z,1.30
2019-05-26T12:48:48.959Z,1.57
2019-05-26T12:51:17.057Z,1.23
2019-05-26T12:53:45.165Z,1.20
2019-05-26T12:56:15.249Z,1.23
2019-05-26T12:58:43.279Z,1.50
2019-05-26T13:01:11.364Z,1.60
2019-05-26T13:03:40.659Z,1.40
2019-05-26T13:06:08.699Z,1.60
2019-05-26T13:08:38.304Z,1.33
2019-05-26T13:11:06.485Z,1.47
2019-05-26T13:13:34.536Z,1.30
2019-05-26T13:16:02.680Z,1.33
2019-05-26T13:18:30.780Z,1.30
2019-05-26T13:20:58.802Z,1.30
2019-05-26T13:23:26.948Z,1.20
2019-05-26T13:25:55.161Z,1.43
2019-05-26T13:28:23.310Z,1.40
2019-05-26T13:30:51.952Z,1.20
2019-05-26T13:33:21.686Z,0.97
2019-05-26T13:35:49.910Z,1.40
2019-05-26T13:38:18.097Z,1.20
2019-05-26T13:40:46.176Z,1.00
2019-05-26T13:43:14.342Z,0.90
2019-05-26T13:45:42.460Z,1.00
2019-05-26T13:48:10.708Z,0.97
2019-05-26T13:50:38.993Z,1.00
2019-05-26T13:53:07.162Z,0.83
2019-05-26T13:55:35.206Z,0.93
2019-05-26T13:58:03.250Z,1.00
2019-05-26T14:00:31.298Z,0.90
2019-05-26T14:02:59.294Z,0.90
2019-05-26T14:05:27.767Z,0.73
2019-05-26T14:07:55.735Z,0.80
2019-05-26T14:10:32.956Z,1.07
2019-05-26T14:13:01.868Z,0.87
2019-05-26T14:15:37.996Z,0.90
2019-05-26T14:18:01.110Z,0.90
2019-05-26T14:20:35.305Z,0.80
2019-05-26T14:23:06.256Z,1.00
2019-05-26T14:25:43.161Z,1.00
2019-05-26T14:28:11.270Z,0.90
2019-05-26T14:30:39.642Z,0.80
2019-05-26T14:33:07.900Z,0.90
2019-05-26T14:35:36.198Z,0.80
2019-05-26T14:38:04.436Z,1.00
2019-05-26T14:40:32.626Z,1.13
2019-05-26T14:43:00.704Z,0.97
2019-05-26T14:45:28.935Z,0.90
2019-05-26T14:47:57.529Z,1.00
2019-05-26T14:50:25.857Z,1.20
2019-05-26T14:52:53.895Z,1.10
2019-05-26T14:55:22.212Z,0.90
2019-05-26T14:57:50.257Z,1.20
2019-05-26T15:00:19.966Z,0.90
2019-05-26T15:02:48.024Z,0.90
2019-05-26T15:05:16.652Z,1.10
2019-05-26T15:07:44.646Z,1.10
2019-05-26T15:10:13.233Z,0.80
2019-05-26T15:12:41.217Z,1.00
2019-05-26T15:15:11.010Z,1.00
2019-05-26T15:17:39.040Z,0.90
2019-05-26T15:20:08.914Z,1.00
2019-05-26T15:22:38.514Z,0.90
2019-05-26T15:25:07.595Z,1.00
2019-05-26T15:27:35.975Z,0.97
2019-05-26T15:30:06.117Z,1.00
2019-05-26T15:32:34.151Z,0.97
2019-05-26T15:35:02.468Z,0.90
2019-05-26T15:37:30.577Z,1.03
2019-05-26T15:39:58.671Z,0.80
2019-05-26T15:42:26.808Z,1.07
2019-05-26T15:44:55.044Z,0.90
2019-05-26T15:47:23.050Z,1.00
2019-05-26T15:49:51.361Z,0.93
2019-05-26T15:52:19.543Z,1.00
2019-05-26T15:54:47.731Z,1.10
2019-05-26T15:57:15.760Z,0.83
2019-05-26T15:59:43.856Z,1.30
2019-05-26T16:02:11.879Z,1.17
2019-05-26T16:04:44.977Z,1.20
2019-05-26T16:07:12.195Z,1.10
2019-05-26T16:09:40.409Z,0.93
2019-05-26T16:12:08.454Z,1.07
2019-05-26T16:14:38.448Z,0.80
2019-05-26T16:17:07.693Z,1.00
2019-05-26T16:19:35.856Z,1.00
2019-05-26T16:22:03.931Z,1.00
2019-05-26T16:24:32.455Z,0.87
2019-05-26T16:27:17.855Z,0.90
2019-05-26T16:29:30.764Z,1.00
2019-05-26T16:31:59.064Z,1.07
2019-05-26T16:34:27.199Z,1.00
2019-05-26T16:36:55.315Z,0.90
2019-05-26T16:39:36.112Z,0.87
2019-05-26T16:41:53.398Z,1.00
2019-05-26T16:44:21.380Z,1.00
2019-05-26T16:46:56.534Z,1.00
2019-05-26T16:49:21.107Z,0.80
2019-05-26T16:51:49.218Z,1.03
2019-05-26T16:54:18.553Z,0.90
2019-05-26T16:56:46.610Z,1.30
2019-05-26T16:59:14.896Z,1.10
2019-05-26T17:01:43.038Z,0.87
2019-05-26T17:04:11.049Z,1.30
2019-05-26T17:06:40.764Z,1.10
2019-05-26T17:09:10.251Z,1.10
2019-05-26T17:11:38.456Z,0.93
2019-05-26T17:14:06.523Z,1.23
2019-05-26T17:16:36.204Z,1.17
2019-05-26T17:19:04.286Z,1.10
2019-05-26T17:21:32.456Z,1.20
2019-05-26T17:24:00.614Z,1.10
2019-05-26T17:26:28.974Z,1.20
2019-05-26T17:28:57.538Z,1.27
2019-05-26T17:31:26.915Z,1.20
2019-05-26T17:33:55.195Z,1.20
2019-05-26T17:36:23.395Z,1.10
2019-05-26T17:38:51.511Z,1.27
2019-05-26T17:41:20.041Z,1.10
2019-05-26T17:43:48.054Z,1.20
2019-05-26T17:46:16.603Z,1.00
2019-05-26T17:48:45.095Z,1.17
2019-05-26T17:51:13.257Z,1.17
2019-05-26T17:53:41.454Z,0.97
2019-05-26T17:56:10.015Z,1.00
2019-05-26T17:58:39.039Z,0.90
2019-05-26T18:01:07.171Z,0.97
2019-05-26T18:03:35.531Z,0.90
2019-05-26T18:06:03.949Z,1.10
2019-05-26T18:08:35.914Z,1.40
2019-05-26T18:11:02.229Z,1.20
2019-05-26T18:13:30.337Z,1.10
2019-05-26T18:15:59.453Z,1.13
2019-05-26T18:18:28.906Z,1.30
2019-05-26T18:20:57.055Z,1.00
2019-05-26T18:23:25.085Z,1.10
2019-05-26T18:25:53.332Z,1.07
2019-05-26T18:28:21.685Z,0.90
2019-05-26T18:30:50.026Z,1.33
2019-05-26T18:33:18.199Z,1.20
2019-05-26T18:35:46.360Z,1.10
2019-05-26T18:38:14.584Z,0.97
2019-05-26T18:40:42.640Z,1.20
2019-05-26T18:43:10.850Z,1.00
2019-05-26T18:45:38.887Z,0.90
2019-05-26T18:48:07.149Z,0.80
2019-05-26T18:50:35.334Z,0.90
2019-05-26T18:53:03.612Z,0.80
2019-05-26T18:55:31.985Z,0.83
2019-05-26T18:58:00.481Z,0.90
2019-05-26T19:00:30.883Z,0.70
2019-05-26T19:02:59.061Z,0.80
2019-05-26T19:05:33.767Z,0.77
2019-05-26T19:07:57.283Z,0.60
2019-05-26T19:10:25.433Z,0.80
2019-05-26T19:12:53.982Z,0.80
2019-05-26T19:15:22.042Z,0.80
2019-05-26T19:17:51.353Z,0.80
2019-05-26T19:20:19.755Z,0.70
2019-05-26T19:22:48.027Z,0.70
2019-05-26T19:25:16.312Z,0.80
2019-05-26T19:27:44.540Z,0.73
2019-05-26T19:30:13.065Z,0.90
2019-05-26T19:32:41.666Z,0.80
2019-05-26T19:35:11.616Z,0.80
2019-05-26T19:37:40.010Z,0.87
2019-05-26T19:40:09.173Z,0.90
2019-05-26T19:42:39.744Z,0.70
2019-05-26T19:45:08.145Z,0.80
2019-05-26T19:47:36.337Z,0.80
2019-05-26T19:50:05.144Z,0.80
2019-05-26T19:52:33.452Z,0.90
2019-05-26T19:55:01.862Z,0.50
2019-05-26T19:57:30.378Z,1.00
2019-05-26T19:59:58.441Z,0.80
2019-05-26T20:02:26.707Z,0.80
2019-05-26T20:04:55.857Z,0.90
2019-05-26T20:07:23.962Z,0.90
2019-05-26T20:09:51.986Z,0.80
2019-05-26T20:12:20.515Z,1.00
2019-05-26T20:14:48.966Z,0.90
2019-05-26T20:17:17.163Z,0.80
2019-05-26T20:19:45.292Z,0.90
2019-05-26T20:22:13.830Z,0.93
2019-05-26T20:24:42.308Z,1.00
2019-05-26T20:27:10.632Z,0.70
2019-05-26T20:29:39.017Z,0.90
2019-05-26T20:32:08.294Z,0.90
2019-05-26T20:34:36.652Z,0.90
2019-05-26T20:37:04.878Z,1.00
2019-05-26T20:39:32.931Z,0.90
2019-05-26T20:42:01.367Z,1.10
2019-05-26T20:44:29.557Z,1.10
2019-05-26T20:46:57.620Z,0.77
2019-05-26T20:49:25.746Z,0.83
2019-05-26T20:51:54.868Z,0.93
2019-05-26T20:54:23.034Z,0.93
2019-05-26T20:56:51.203Z,0.90
2019-05-26T20:59:19.778Z,0.90
2019-05-26T21:01:47.828Z,1.00
2019-05-26T21:04:23.079Z,0.80
2019-05-26T21:06:52.332Z,0.87
2019-05-26T21:09:20.730Z,0.80
2019-05-26T21:11:49.170Z,0.90
2019-05-26T21:14:17.291Z,0.97
2019-05-26T21:16:45.424Z,1.00
2019-05-26T21:19:14.065Z,0.87
2019-05-26T21:21:42.163Z,1.20
2019-05-26T21:24:11.172Z,0.80
2019-05-26T21:26:40.837Z,1.00
2019-05-26T21:29:09.535Z,0.80
2019-05-26T21:31:37.628Z,0.97
2019-05-26T21:34:07.821Z,1.10
2019-05-26T21:36:35.921Z,1.00
2019-05-26T21:39:07.372Z,1.00
2019-05-26T21:41:35.828Z,1.00
2019-05-26T21:44:04.563Z,1.00
2019-05-26T21:46:32.569Z,0.80
2019-05-26T21:49:00.763Z,1.03
2019-05-26T21:51:30.044Z,0.90
2019-05-26T21:53:58.106Z,0.90
2019-05-26T21:56:26.318Z,0.90
2019-05-26T21:58:54.522Z,0.87
2019-05-26T22:01:22.673Z,0.70
2019-05-26T22:03:51.978Z,0.67
2019-05-26T22:06:20.366Z,0.70
2019-05-26T22:08:48.564Z,0.90
2019-05-26T22:11:17.042Z,0.80
2019-05-26T22:13:45.375Z,0.90
2019-05-26T22:16:14.180Z,1.00
2019-05-26T22:18:42.596Z,0.70
2019-05-26T22:21:10.818Z,0.90
2019-05-26T22:23:38.944Z,1.07
2019-05-26T22:26:07.077Z,0.80
2019-05-26T22:28:35.334Z,0.83
2019-05-26T22:31:03.872Z,0.90
2019-05-26T22:33:33.680Z,1.03
2019-05-26T22:36:01.826Z,0.93
2019-05-26T22:38:29.954Z,1.00
2019-05-26T22:40:58.109Z,1.00
2019-05-26T22:43:26.370Z,0.97
2019-05-26T22:45:54.699Z,0.90
2019-05-26T22:48:22.965Z,0.87
2019-05-26T22:50:51.186Z,1.07
2019-05-26T22:53:19.159Z,1.00
2019-05-26T22:55:47.329Z,1.10
2019-05-26T22:58:15.322Z,1.00
2019-05-26T23:00:44.835Z,1.20
2019-05-26T23:03:12.825Z,0.90
2019-05-26T23:05:41.161Z,1.03
2019-05-26T23:08:09.458Z,0.87
2019-05-26T23:10:37.608Z,0.93
2019-05-26T23:13:05.901Z,1.00
2019-05-26T23:15:35.170Z,1.00
2019-05-26T23:18:03.243Z,1.00
2019-05-26T23:20:31.250Z,0.90
2019-05-26T23:22:59.362Z,0.93
2019-05-26T23:25:27.793Z,1.10
2019-05-26T23:27:55.938Z,0.87
2019-05-26T23:30:24.131Z,1.00
2019-05-26T23:32:52.360Z,0.87
2019-05-26T23:35:20.500Z,0.87
2019-05-26T23:37:49.034Z,0.80
2019-05-26T23:40:17.023Z,1.00
2019-05-26T23:42:45.260Z,0.90
2019-05-26T23:45:13.382Z,0.90
2019-05-26T23:47:41.936Z,1.00
2019-05-26T23:50:10.130Z,0.90
2019-05-26T23:52:38.853Z,1.07
2019-05-26T23:55:07.250Z,0.80
2019-05-26T23:57:35.504Z,1.00
